Time;durP1;ratioP1;P1;durP2;ratioP2;P2;SDS_P1;SDS_P2;PMS_P1;PMS_P2;Temp;Humidity;BMP_temperature;BMP_pressure;BME280_temperature;BME280_humidity;BME280_pressure;Samples;Min_cycle;Max_cycle;Signal;HPM_P1;HPM_P2
2023/10/23 00:01:55;;;;;;;12.70;5.90;;;;;;;17.98;100.00;98869.59;108325;1254;72334;-61
2023/10/23 00:04:23;;;;;;;15.00;6.10;;;;;;;18.03;100.00;98865.27;108457;1254;60646;-60
2023/10/23 00:06:51;;;;;;;10.70;5.90;;;;;;;18.05;100.00;98865.45;108315;1254;60588;-60
2023/10/23 00:09:18;;;;;;;12.90;6.00;;;;;;;18.06;100.00;98857.92;108336;1252;74079;-60
2023/10/23 00:11:46;;;;;;;14.40;6.00;;;;;;;18.07;100.00;98856.05;108428;1254;69606;-60
2023/10/23 00:14:14;;;;;;;;;;;;;;;18.04;100.00;98856.65;108368;1254;72296;-59
2023/10/23 00:16:41;;;;;;;8.70;4.70;;;;;;;18.02;100.00;98855.25;108514;1253;61390;-59
2023/10/23 00:19:09;;;;;;;15.60;5.00;;;;;;;17.98;100.00;98855.43;108478;1253;58734;-58
2023/10/23 00:21:37;;;;;;;11.60;5.20;;;;;;;17.95;100.00;98852.36;108453;1253;73772;-58
2023/10/23 00:24:05;;;;;;;10.60;4.80;;;;;;;17.92;100.00;98851.34;108455;1253;68123;-60
2023/10/23 00:26:33;;;;;;;9.70;4.80;;;;;;;17.91;100.00;98855.46;108282;1254;72292;-58
2023/10/23 00:29:01;;;;;;;13.30;4.90;;;;;;;17.90;100.00;98854.65;108282;1253;61813;-59
2023/10/23 00:31:29;;;;;;;8.70;4.60;;;;;;;17.88;100.00;98854.66;108537;1252;59789;-58
2023/10/23 00:33:57;;;;;;;8.60;5.00;;;;;;;17.87;100.00;98854.40;108521;1254;73668;-59
2023/10/23 00:36:24;;;;;;;;;;;;;;;17.84;100.00;98856.98;108496;1253;69786;-58
2023/10/23 00:38:52;;;;;;;13.10;4.50;;;;;;;17.84;100.00;98856.25;108256;1254;72344;-59
2023/10/23 00:41:20;;;;;;;14.90;5.00;;;;;;;17.80;100.00;98856.77;108352;1254;62436;-61
2023/10/23 00:43:50;;;;;;;8.40;5.40;;;;;;;17.77;100.00;98858.95;108120;1254;59735;-59
2023/10/23 00:46:21;;;;;;;9.50;4.70;;;;;;;17.79;100.00;98864.30;108398;1254;73664;-58
2023/10/23 00:48:49;;;;;;;7.60;4.10;;;;;;;17.78;100.00;98860.25;108380;1252;69087;-58
2023/10/23 00:51:17;;;;;;;10.70;4.20;;;;;;;17.77;100.00;98855.96;108469;1253;72344;-58
2023/10/23 00:53:46;;;;;;;10.30;4.60;;;;;;;17.81;100.00;98858.08;108316;1253;61461;-58
2023/10/23 00:56:14;;;;;;;8.50;4.30;;;;;;;17.84;100.00;98861.05;108313;1254;59789;-58
2023/10/23 00:58:45;;;;;;;10.30;4.70;;;;;;;17.82;100.00;98860.80;107851;1252;74110;-58
2023/10/23 01:01:12;;;;;;;11.10;4.10;;;;;;;17.80;100.00;98856.58;108112;1252;69526;-58
2023/10/23 01:03:41;;;;;;;8.10;3.80;;;;;;;17.78;100.00;98856.23;108290;1254;72407;-58
2023/10/23 01:06:14;;;;;;;8.50;4.20;;;;;;;17.78;100.00;98859.23;108046;1253;61493;-58
2023/10/23 01:08:42;;;;;;;8.70;4.30;;;;;;;17.76;100.00;98860.23;108301;1254;60100;-58
2023/10/23 01:11:10;;;;;;;7.70;4.30;;;;;;;17.74;100.00;98857.63;107965;1254;74184;-58
2023/10/23 01:13:38;;;;;;;9.70;4.00;;;;;;;17.74;100.00;98857.44;107915;1253;69607;-58
2023/10/23 01:16:07;;;;;;;;;;;;;;;17.73;100.00;98859.83;108366;1252;73341;-59
2023/10/23 01:18:34;;;;;;;7.60;4.10;;;;;;;17.72;100.00;98864.89;108169;1254;61453;-58
2023/10/23 01:21:02;;;;;;;8.70;4.40;;;;;;;17.71;100.00;98865.08;108472;1253;59692;-58
2023/10/23 01:23:33;;;;;;;;;;;;;;;17.72;100.00;98860.95;108510;1252;74484;-58
2023/10/23 01:26:00;;;;;;;6.90;3.60;;;;;;;17.74;100.00;98862.08;108356;1254;70042;-58
2023/10/23 01:28:30;;;;;;;8.90;3.50;;;;;;;17.70;100.00;98861.71;108534;1253;72551;-59
2023/10/23 01:30:58;;;;;;;10.90;4.00;;;;;;;17.69;100.00;98863.16;108528;1252;62377;-58
2023/10/23 01:33:26;;;;;;;;;;;;;;;17.72;100.00;98860.98;108353;1253;58630;-57
2023/10/23 01:35:53;;;;;;;5.80;3.20;;;;;;;17.74;100.00;98860.31;108342;1253;74036;-58
2023/10/23 01:38:21;;;;;;;6.20;3.30;;;;;;;17.69;100.00;98864.76;108476;1252;69648;-58
2023/10/23 01:40:48;;;;;;;6.10;2.90;;;;;;;17.69;100.00;98871.86;108103;1253;72762;-58
2023/10/23 01:43:16;;;;;;;4.30;2.90;;;;;;;17.71;100.00;98870.77;108350;1254;61403;-58
2023/10/23 01:45:44;;;;;;;6.20;3.40;;;;;;;17.69;100.00;98870.95;108211;1252;59764;-58
2023/10/23 01:48:11;;;;;;;9.30;3.50;;;;;;;17.69;100.00;98872.00;108364;1254;72765;-58
2023/10/23 01:50:39;;;;;;;3.70;2.70;;;;;;;17.69;100.00;98873.99;108469;1253;69155;-57
2023/10/23 01:53:08;;;;;;;5.10;3.00;;;;;;;17.68;100.00;98872.42;108410;1254;72627;-58
2023/10/23 01:55:37;;;;;;;4.40;2.40;;;;;;;17.70;100.00;98876.03;108367;1254;61442;-58
2023/10/23 01:58:04;;;;;;;;;;;;;;;17.71;100.00;98877.11;108311;1254;59735;-58
2023/10/23 02:00:32;;;;;;;7.20;2.40;;;;;;;17.70;100.00;98881.30;108335;1254;74503;-58
2023/10/23 02:03:00;;;;;;;5.20;2.10;;;;;;;17.70;100.00;98880.10;108242;1253;69346;-58
2023/10/23 02:05:28;;;;;;;5.80;2.50;;;;;;;17.73;100.00;98877.69;108284;1254;72938;-57
2023/10/23 02:07:56;;;;;;;4.40;2.70;;;;;;;17.76;100.00;98873.55;108028;1256;61805;-58
2023/10/23 02:10:23;;;;;;;4.00;2.50;;;;;;;17.78;100.00;98879.59;108419;1253;60101;-58
2023/10/23 02:12:51;;;;;;;5.90;2.20;;;;;;;17.78;100.00;98881.16;108531;1252;73813;-60
2023/10/23 02:15:19;;;;;;;4.20;2.10;;;;;;;17.79;100.00;98876.86;108349;1252;68801;-58
2023/10/23 02:17:47;;;;;;;3.80;2.20;;;;;;;17.78;100.00;98879.77;108254;1254;72529;-57
2023/10/23 02:20:15;;;;;;;3.00;2.20;;;;;;;17.77;100.00;98880.03;108329;1252;61924;-57
2023/10/23 02:22:43;;;;;;;3.50;2.10;;;;;;;17.79;100.00;98878.48;108011;1252;58978;-58
2023/10/23 02:25:10;;;;;;;4.10;2.10;;;;;;;17.78;100.00;98881.38;108193;1254;74579;-58
2023/10/23 02:27:39;;;;;;;3.60;1.90;;;;;;;17.75;100.00;98879.34;108137;1254;69246;-58
2023/10/23 02:30:07;;;;;;;3.20;2.00;;;;;;;17.74;100.00;98882.39;108185;1256;71922;-58
2023/10/23 02:32:35;;;;;;;3.50;2.30;;;;;;;17.74;100.00;98886.33;108301;1254;61650;-58
2023/10/23 02:35:03;;;;;;;3.50;2.00;;;;;;;17.73;100.00;98883.40;108137;1253;59722;-58
2023/10/23 02:37:30;;;;;;;2.90;2.10;;;;;;;17.73;100.00;98890.66;108238;1253;72484;-58
2023/10/23 02:39:58;;;;;;;6.30;2.30;;;;;;;17.73;100.00;98885.33;108299;1253;69612;-58
2023/10/23 02:42:26;;;;;;;;;;;;;;;17.70;100.00;98886.08;108000;1253;71096;-59
2023/10/23 02:44:54;;;;;;;2.90;1.80;;;;;;;17.72;100.00;98879.44;108071;1254;61661;-58
2023/10/23 02:47:21;;;;;;;5.20;2.30;;;;;;;17.70;100.00;98881.48;108199;1254;59837;-58
2023/10/23 02:49:49;;;;;;;5.30;2.60;;;;;;;17.63;100.00;98880.48;108188;1252;73700;-58
2023/10/23 02:52:17;;;;;;;6.40;2.20;;;;;;;17.57;100.00;98882.97;108236;1254;69731;-58
2023/10/23 02:54:44;;;;;;;;;;;;;;;17.52;100.00;98885.34;108243;1254;72639;-58
2023/10/23 02:57:12;;;;;;;5.40;2.20;;;;;;;17.47;100.00;98889.42;108148;1253;62006;-58
2023/10/23 02:59:46;;;;;;;6.60;2.60;;;;;;;17.39;100.00;98887.46;108397;1252;59874;-59
2023/10/23 03:02:14;;;;;;;5.10;2.80;;;;;;;17.39;100.00;98887.86;108498;1253;73720;-58
2023/10/23 03:04:42;;;;;;;4.20;2.60;;;;;;;17.45;100.00;98890.91;108255;1253;69290;-58
2023/10/23 03:07:11;;;;;;;4.30;2.20;;;;;;;17.38;100.00;98894.44;108266;1253;72341;-58
2023/10/23 03:09:39;;;;;;;4.10;2.50;;;;;;;17.34;100.00;98893.17;108308;1253;61383;-59
2023/10/23 03:12:07;;;;;;;6.10;2.20;;;;;;;17.30;100.00;98896.38;108233;1252;59803;-58
2023/10/23 03:14:35;;;;;;;4.70;2.70;;;;;;;17.26;100.00;98897.02;108372;1253;73537;-58
2023/10/23 03:17:02;;;;;;;2.80;2.10;;;;;;;17.19;100.00;98889.82;108377;1253;68729;-58
2023/10/23 03:19:30;;;;;;;4.80;2.20;;;;;;;17.24;100.00;98899.50;108157;1254;72908;-58
2023/10/23 03:21:58;;;;;;;5.00;2.20;;;;;;;17.23;100.00;98904.08;108245;1254;62342;-58
2023/10/23 03:24:25;;;;;;;2.60;1.80;;;;;;;17.17;100.00;98905.05;108169;1254;58659;-58
2023/10/23 03:26:53;;;;;;;5.00;2.30;;;;;;;17.14;100.00;98908.79;108180;1254;75704;-59
2023/10/23 03:29:21;;;;;;;5.70;1.80;;;;;;;17.09;100.00;98911.49;108170;1252;69911;-58
2023/10/23 03:31:52;;;;;;;2.90;2.20;;;;;;;16.86;100.00;98883.66;108298;1254;71607;-58
2023/10/23 03:34:19;;;;;;;2.90;2.10;;;;;;;17.03;100.00;98916.09;108129;1253;61410;-57
2023/10/23 03:36:47;;;;;;;2.70;2.00;;;;;;;17.02;100.00;98912.45;108284;1252;59258;-59
2023/10/23 03:39:15;;;;;;;2.20;1.50;;;;;;;17.04;100.00;98911.42;108249;1256;74120;-63
2023/10/23 03:41:43;;;;;;;2.40;1.80;;;;;;;17.00;100.00;98914.04;108372;1253;69186;-58
2023/10/23 03:44:11;;;;;;;2.20;1.80;;;;;;;16.99;100.00;98920.48;108373;1253;72776;-60
2023/10/23 03:46:40;;;;;;;2.20;1.70;;;;;;;16.97;100.00;98918.20;108108;1253;61363;-59
2023/10/23 03:49:08;;;;;;;1.70;1.60;;;;;;;16.98;100.00;98922.89;108303;1254;60658;-60
2023/10/23 03:51:35;;;;;;;4.60;2.10;;;;;;;16.97;100.00;98921.88;108321;1254;74127;-60
2023/10/23 03:54:03;;;;;;;2.70;1.90;;;;;;;16.98;100.00;98918.08;108262;1253;69594;-58
2023/10/23 03:56:31;;;;;;;;;;;;;;;16.96;100.00;98920.40;108352;1254;72379;-59
2023/10/23 03:59:00;;;;;;;;;;;;;;;16.93;100.00;98921.14;108304;1253;61435;-59
2023/10/23 04:01:28;;;;;;;2.10;1.70;;;;;;;16.94;100.00;98922.31;108276;1256;59458;-59
2023/10/23 04:03:58;;;;;;;4.70;1.40;;;;;;;16.95;100.00;98920.06;108142;1254;74508;-58
2023/10/23 04:06:26;;;;;;;1.70;1.60;;;;;;;16.97;100.00;98921.54;108286;1254;69330;-58
2023/10/23 04:08:53;;;;;;;3.30;1.50;;;;;;;16.94;100.00;98925.83;108155;1252;72399;-61
2023/10/23 04:11:22;;;;;;;2.00;1.40;;;;;;;16.93;100.00;98930.52;108264;1253;61769;-62
2023/10/23 04:13:50;;;;;;;4.80;1.40;;;;;;;16.94;100.00;98935.55;108065;1253;61112;-62
2023/10/23 04:16:17;;;;;;;1.70;1.60;;;;;;;16.97;100.00;98944.02;108080;1256;73007;-63
2023/10/23 04:18:46;;;;;;;1.50;1.40;;;;;;;16.96;100.00;98941.23;108169;1253;69058;-62
2023/10/23 04:21:13;;;;;;;1.80;1.40;;;;;;;16.95;100.00;98945.08;108090;1254;72489;-61
2023/10/23 04:23:41;;;;;;;1.70;1.60;;;;;;;16.91;100.00;98946.08;108455;1254;61613;-61
2023/10/23 04:26:08;;;;;;;1.70;1.60;;;;;;;16.89;100.00;98948.52;108332;1252;59722;-62
2023/10/23 04:28:36;;;;;;;2.50;1.50;;;;;;;16.89;100.00;98947.50;108359;1254;72651;-62
2023/10/23 04:31:04;;;;;;;2.70;1.60;;;;;;;16.88;100.00;98951.13;108344;1253;69058;-61
2023/10/23 04:33:32;;;;;;;2.20;1.60;;;;;;;16.84;100.00;98949.80;108312;1252;72373;-61
2023/10/23 04:36:00;;;;;;;;;;;;;;;16.85;100.00;98954.70;108326;1252;61460;-61
2023/10/23 04:38:28;;;;;;;;;;;;;;;16.81;100.00;98960.64;108435;1253;62299;-61
2023/10/23 04:43:14;;;;;;;5.40;1.60;;;;;;;16.23;100.00;98966.52;101584;1294;600795;-60
2023/10/23 04:45:42;;;;;;;;;;;;;;;16.60;100.00;98967.46;103582;1270;61397;-60
2023/10/23 04:48:10;;;;;;;2.40;1.70;;;;;;;16.61;100.00;98972.15;103713;1270;60450;-60
2023/10/23 04:50:38;;;;;;;2.80;1.50;;;;;;;16.56;100.00;98974.80;103625;1283;72181;-61
2023/10/23 04:53:06;;;;;;;1.60;1.50;;;;;;;16.53;100.00;98972.39;103635;1271;69305;-59
2023/10/23 04:55:34;;;;;;;;;;;;;;;16.51;100.00;98976.09;103674;1273;72392;-60
2023/10/23 04:58:02;;;;;;;1.60;1.30;;;;;;;16.52;100.00;98976.16;104182;1260;211897;-60
2023/10/23 05:00:30;;;;;;;;;;;;;;;16.49;100.00;98976.26;104295;1259;59810;-60
2023/10/23 05:02:58;;;;;;;2.70;1.30;;;;;;;16.46;100.00;98982.65;104287;1260;71924;-61
2023/10/23 05:05:25;;;;;;;2.90;1.60;;;;;;;16.47;100.00;98987.94;104347;1257;69456;-60
2023/10/23 05:07:53;;;;;;;1.60;1.50;;;;;;;16.44;100.00;98989.88;104875;1254;72912;-60
2023/10/23 05:10:21;;;;;;;;;;;;;;;16.42;100.00;98983.36;108244;1254;60424;-61
2023/10/23 05:12:49;;;;;;;2.00;1.20;;;;;;;16.47;100.00;98994.11;106276;1254;59797;-60
2023/10/23 05:15:17;;;;;;;1.50;1.40;;;;;;;16.45;100.00;98993.89;104355;1264;72794;-60
2023/10/23 05:17:45;;;;;;;1.50;1.40;;;;;;;16.47;100.00;98994.64;104708;1258;69027;-60
2023/10/23 05:20:13;;;;;;;2.20;1.40;;;;;;;16.44;100.00;98998.59;104686;1254;71492;-60
2023/10/23 05:22:41;;;;;;;1.20;1.20;;;;;;;16.45;100.00;99003.41;104391;1260;61418;-60
2023/10/23 05:25:09;;;;;;;2.30;1.60;;;;;;;16.46;100.00;99008.69;104566;1259;60687;-60
2023/10/23 05:27:37;;;;;;;2.30;1.10;;;;;;;16.43;100.00;99013.18;104438;1259;72666;-60
2023/10/23 05:30:06;;;;;;;1.20;1.20;;;;;;;16.43;100.00;99010.89;104474;1260;69131;-61
2023/10/23 05:32:35;;;;;;;1.60;1.20;;;;;;;16.46;100.00;99012.75;104285;1267;72920;-64
2023/10/23 05:35:03;;;;;;;1.30;1.20;;;;;;;16.49;100.00;99020.14;105004;1254;61443;-58
2023/10/23 05:37:35;;;;;;;1.30;1.20;;;;;;;16.51;100.00;99020.65;104831;1254;59725;-62
2023/10/23 05:40:06;;;;;;;1.40;1.30;;;;;;;16.54;100.00;99021.67;104676;1260;72938;-62
2023/10/23 05:42:34;;;;;;;2.10;1.20;;;;;;;16.57;100.00;99024.83;104515;1260;70005;-61
2023/10/23 05:45:03;;;;;;;1.70;1.50;;;;;;;16.58;100.00;99023.14;104484;1258;71424;-62
2023/10/23 05:47:30;;;;;;;1.30;1.20;;;;;;;16.58;100.00;99024.23;104440;1276;60507;-61
2023/10/23 05:49:58;;;;;;;1.40;1.30;;;;;;;16.60;100.00;99026.71;104571;1269;59701;-61
2023/10/23 05:52:26;;;;;;;3.10;1.30;;;;;;;16.61;100.00;99026.23;104473;1257;72780;-61
2023/10/23 05:54:53;;;;;;;1.70;1.10;;;;;;;16.64;100.00;99026.91;104182;1264;69058;-61
2023/10/23 05:57:21;;;;;;;1.40;1.20;;;;;;;16.70;100.00;99027.73;104135;1278;72448;-61
2023/10/23 05:59:51;;;;;;;2.20;1.40;;;;;;;16.69;100.00;99029.90;104331;1254;61559;-61
2023/10/23 06:02:19;;;;;;;1.40;1.30;;;;;;;16.72;100.00;99027.72;104084;1260;59794;-64
2023/10/23 06:04:49;;;;;;;1.50;1.40;;;;;;;16.80;100.00;99028.22;104506;1257;73286;-60
2023/10/23 06:07:17;;;;;;;2.70;1.30;;;;;;;16.79;100.00;99028.75;104548;1260;69019;-61
2023/10/23 06:09:45;;;;;;;3.30;1.60;;;;;;;16.84;100.00;99035.83;104190;1264;72357;-61
2023/10/23 06:12:14;;;;;;;1.40;1.30;;;;;;;16.82;100.00;99034.95;104360;1257;60622;-61
2023/10/23 06:14:42;;;;;;;1.30;1.20;;;;;;;16.85;100.00;99035.79;104212;1258;59891;-61
2023/10/23 06:17:10;;;;;;;1.30;1.20;;;;;;;16.92;100.00;99033.84;104173;1257;72902;-62
2023/10/23 06:19:38;;;;;;;1.30;1.20;;;;;;;16.96;100.00;99039.15;104311;1260;69411;-62
2023/10/23 06:22:06;;;;;;;1.70;1.20;;;;;;;16.95;100.00;99040.48;104592;1260;73432;-61
2023/10/23 06:24:33;;;;;;;1.90;1.50;;;;;;;16.99;100.00;99046.01;104168;1258;61789;-61
2023/10/23 06:27:01;;;;;;;1.50;1.30;;;;;;;17.03;100.00;99045.87;104641;1260;60199;-62
2023/10/23 06:29:29;;;;;;;1.80;1.70;;;;;;;17.07;100.00;99048.90;104098;1260;72799;-61
2023/10/23 06:31:57;;;;;;;;;;;;;;;17.06;100.00;99055.86;104169;1260;69758;-62
2023/10/23 06:34:26;;;;;;;1.50;1.20;;;;;;;17.10;100.00;99061.56;104345;1271;71682;-62
2023/10/23 06:36:56;;;;;;;4.20;1.50;;;;;;;17.11;100.00;99056.21;104301;1257;61785;-61
2023/10/23 06:39:25;;;;;;;1.50;1.40;;;;;;;17.17;100.00;99057.70;104620;1260;59831;-61
2023/10/23 06:41:53;;;;;;;1.70;1.60;;;;;;;17.20;100.00;99055.33;104210;1267;73255;-61
2023/10/23 16:59:31;;;;;;;3.40;3.10;;;;;;;16.69;100.00;99352.52;101595;1292;600889;-60
2023/10/23 17:01:59;;;;;;;3.40;2.60;;;;;;;17.04;100.00;99351.92;103767;1270;63844;-60
2023/10/23 17:04:27;;;;;;;;;;;;;;;17.00;100.00;99350.42;103901;1267;59698;-60
2023/10/23 17:06:55;;;;;;;3.40;2.60;;;;;;;16.96;100.00;99350.17;104311;1257;72322;-63
2023/10/23 17:09:23;;;;;;;2.80;2.40;;;;;;;16.96;100.00;99350.03;104340;1261;69991;-60
2023/10/23 17:11:51;;;;;;;3.50;3.20;;;;;;;16.91;100.00;99353.38;104627;1256;73147;-60
2023/10/23 17:14:19;;;;;;;5.20;3.00;;;;;;;16.88;100.00;99353.10;104278;1256;388328;-61
2023/10/23 17:16:47;;;;;;;4.20;3.80;;;;;;;16.86;100.00;99358.58;105429;1253;59988;-61
2023/10/23 17:19:15;;;;;;;6.80;4.20;;;;;;;16.85;100.00;99362.88;108231;1254;72886;-60
2023/10/23 17:21:43;;;;;;;5.40;4.80;;;;;;;16.83;100.00;99369.40;108272;1254;69368;-61
2023/10/23 17:24:11;;;;;;;;;;;;;;;16.77;100.00;99377.72;108202;1254;73159;-64
2023/10/23 17:26:38;;;;;;;4.50;3.50;;;;;;;16.68;100.00;99379.96;107603;1254;61478;-62
2023/10/23 17:29:06;;;;;;;4.60;4.20;;;;;;;16.63;100.00;99378.02;108193;1254;59661;-61
2023/10/23 17:31:34;;;;;;;;;;;;;;;16.61;100.00;99376.05;107660;1255;72899;-62
2023/10/23 17:34:02;;;;;;;4.80;3.40;;;;;;;16.68;100.00;99378.41;104308;1254;69771;-61
2023/10/23 17:36:32;;;;;;;4.60;4.20;;;;;;;16.69;100.00;99377.79;104412;1257;72447;-61
2023/10/23 17:39:00;;;;;;;4.50;3.70;;;;;;;16.74;100.00;99376.35;104264;1259;60557;-62
2023/10/23 17:41:27;;;;;;;;;;;;;;;16.78;100.00;99379.99;104681;1270;60644;-61
2023/10/23 17:43:55;;;;;;;4.60;4.10;;;;;;;16.77;100.00;99378.95;104617;1260;72887;-61
2023/10/23 17:46:23;;;;;;;4.60;3.70;;;;;;;16.77;100.00;99380.02;104532;1254;69691;-61
2023/10/23 17:48:51;;;;;;;;;;;;;;;16.79;100.00;99386.77;104521;1258;73317;-61
2023/10/23 17:51:19;;;;;;;4.20;3.80;;;;;;;16.77;100.00;99388.70;104475;1266;61488;-61
2023/10/23 17:53:47;;;;;;;4.20;3.80;;;;;;;16.73;100.00;99389.48;104323;1257;60109;-63
2023/10/23 17:56:17;;;;;;;6.50;3.70;;;;;;;16.72;100.00;99386.92;104365;1253;73488;-61
2023/10/23 17:58:45;;;;;;;4.30;3.80;;;;;;;16.71;100.00;99385.08;104318;1260;70207;-61
2023/10/23 18:01:13;;;;;;;5.40;3.70;;;;;;;16.68;100.00;99385.46;104328;1254;72592;-61
2023/10/23 18:03:41;;;;;;;4.20;3.60;;;;;;;16.69;100.00;99391.63;104313;1254;61674;-63
2023/10/23 18:06:10;;;;;;;3.80;3.30;;;;;;;16.63;100.00;99387.74;104537;1254;59980;-62
2023/10/23 18:08:38;;;;;;;4.40;4.00;;;;;;;16.61;100.00;99391.45;104861;1263;73294;-63
2023/10/23 18:11:10;;;;;;;;;;;;;;;16.57;100.00;99391.23;104410;1254;69796;-63
2023/10/23 18:13:38;;;;;;;4.30;3.70;;;;;;;16.53;100.00;99394.16;104652;1254;71462;-63
2023/10/23 18:16:08;;;;;;;5.60;3.90;;;;;;;16.52;100.00;99398.07;104737;1257;61517;-63
2023/10/23 18:18:35;;;;;;;6.30;3.60;;;;;;;16.46;100.00;99396.81;106768;1254;59762;-65
2023/10/23 18:21:03;;;;;;;;;;;;;;;16.44;100.00;99399.92;107740;1256;72870;-63
2023/10/23 18:23:31;;;;;;;4.30;3.40;;;;;;;16.42;100.00;99397.76;104390;1255;70190;-63
2023/10/23 18:25:59;;;;;;;3.50;3.20;;;;;;;16.38;100.00;99403.90;104750;1270;73035;-61
2023/10/23 18:28:27;;;;;;;;;;;;;;;16.35;100.00;99405.34;108058;1254;62096;-62
2023/10/23 18:30:58;;;;;;;4.20;3.60;;;;;;;16.32;100.00;99407.31;106550;1256;59806;-63
2023/10/23 18:33:27;;;;;;;4.20;3.40;;;;;;;16.29;100.00;99409.63;105071;1257;73153;-62
2023/10/23 18:36:00;;;;;;;3.80;3.40;;;;;;;16.26;100.00;99408.11;105001;1254;70249;-63
2023/10/23 18:38:29;;;;;;;3.50;3.20;;;;;;;16.22;100.00;99409.26;104740;1256;73076;-62
2023/10/23 18:40:57;;;;;;;3.50;3.20;;;;;;;16.22;100.00;99413.48;104928;1257;62371;-63
2023/10/23 18:43:26;;;;;;;3.50;3.20;;;;;;;16.17;100.00;99416.67;104478;1273;59978;-62
2023/10/23 18:45:55;;;;;;;4.60;3.40;;;;;;;16.14;100.00;99418.48;104769;1259;73334;-62
2023/10/23 18:48:23;;;;;;;;;;;;;;;16.13;100.00;99422.92;104587;1254;69898;-63
2023/10/23 18:50:58;;;;;;;;;;;;;;;16.07;100.00;99421.96;104526;1254;72872;-63
2023/10/23 18:53:25;;;;;;;4.10;3.30;;;;;;;15.97;100.00;99415.23;104531;1257;61625;-63
2023/10/23 18:55:53;;;;;;;7.70;3.70;;;;;;;15.95;100.00;99417.60;104480;1257;59703;-62
2023/10/23 18:58:22;;;;;;;4.40;3.50;;;;;;;15.96;100.00;99417.92;104465;1260;72749;-62
2023/10/23 19:00:51;;;;;;;3.80;3.40;;;;;;;15.95;100.00;99415.71;104382;1254;69462;-61
2023/10/23 19:03:19;;;;;;;4.80;3.60;;;;;;;15.94;100.00;99412.36;104351;1254;72451;-60
2023/10/23 19:05:47;;;;;;;;;;;;;;;15.94;100.00;99413.44;104444;1255;62052;-60
2023/10/23 19:08:15;;;;;;;4.90;3.30;;;;;;;15.89;100.00;99410.77;104812;1254;59937;-58
2023/10/23 19:10:43;;;;;;;3.00;2.70;;;;;;;15.85;100.00;99411.23;108524;1251;73130;-59
2023/10/23 19:13:10;;;;;;;4.00;3.50;;;;;;;15.85;100.00;99413.08;105986;1253;69624;-59
2023/10/23 19:15:42;;;;;;;5.40;3.10;;;;;;;15.79;100.00;99417.84;104398;1257;72089;-59
2023/10/23 19:18:10;;;;;;;3.10;2.90;;;;;;;15.73;100.00;99419.84;104572;1254;61822;-60
2023/10/23 19:20:38;;;;;;;4.00;3.60;;;;;;;15.67;100.00;99414.23;104447;1251;59770;-59
2023/10/23 19:23:07;;;;;;;4.60;3.60;;;;;;;15.68;100.00;99419.09;104353;1257;71853;-59
2023/10/23 19:25:35;;;;;;;4.80;3.60;;;;;;;15.71;100.00;99419.27;104313;1265;69596;-59
2023/10/23 19:28:03;;;;;;;5.80;3.50;;;;;;;15.65;100.00;99419.64;104584;1257;73292;-59
2023/10/23 19:30:32;;;;;;;4.70;3.30;;;;;;;15.59;100.00;99422.88;104423;1251;64025;-59
2023/10/23 19:33:00;;;;;;;4.80;3.30;;;;;;;15.50;100.00;99427.34;104513;1251;59891;-60
2023/10/23 19:35:28;;;;;;;4.00;3.10;;;;;;;15.42;100.00;99428.44;104610;1254;73483;-58
2023/10/23 19:37:57;;;;;;;4.30;3.30;;;;;;;15.38;100.00;99425.66;104607;1253;69580;-60
2023/10/23 19:40:24;;;;;;;;;;;;;;;15.40;100.00;99427.70;104453;1254;72938;-59
2023/10/23 19:42:52;;;;;;;3.80;3.50;;;;;;;15.37;100.00;99429.82;104441;1252;61770;-59
2023/10/23 19:45:20;;;;;;;;;;;;;;;15.37;100.00;99431.04;104508;1253;59974;-59
2023/10/23 19:47:48;;;;;;;3.60;3.00;;;;;;;15.39;100.00;99431.64;104335;1263;73720;-59
2023/10/23 19:50:17;;;;;;;4.00;3.00;;;;;;;15.38;100.00;99430.79;104499;1256;68482;-59
2023/10/23 19:52:45;;;;;;;3.60;3.30;;;;;;;15.36;100.00;99430.91;104569;1251;72429;-58
2023/10/23 19:55:14;;;;;;;4.30;3.80;;;;;;;15.35;100.00;99435.61;104480;1252;61712;-59
2023/10/23 19:58:02;;;;;;;5.80;3.80;;;;;;;15.31;100.00;99440.96;104514;1251;60634;-59
2023/10/23 20:00:30;;;;;;;6.30;3.40;;;;;;;15.30;100.00;99443.70;104550;1256;71744;-58
2023/10/23 20:02:58;;;;;;;5.90;4.20;;;;;;;15.32;100.00;99445.20;104482;1256;69191;-59
2023/10/23 20:05:28;;;;;;;7.50;3.40;;;;;;;15.29;100.00;99444.52;104480;1256;72382;-58
2023/10/23 20:07:57;;;;;;;5.70;3.70;;;;;;;15.23;100.00;99448.05;104524;1256;61452;-59
2023/10/23 20:10:25;;;;;;;4.80;3.40;;;;;;;15.15;100.00;99446.77;104378;1252;60066;-59
2023/10/23 20:12:53;;;;;;;5.90;3.60;;;;;;;15.08;100.00;99450.25;104470;1267;73278;-59
2023/10/23 20:15:26;;;;;;;4.00;3.70;;;;;;;15.04;100.00;99452.48;104508;1269;69167;-59
2023/10/23 20:17:54;;;;;;;4.40;3.90;;;;;;;14.97;100.00;99456.77;104360;1257;73373;-59
2023/10/23 20:20:23;;;;;;;6.40;3.80;;;;;;;14.96;100.00;99455.23;104448;1263;61371;-59
2023/10/23 20:22:50;;;;;;;5.80;3.60;;;;;;;14.94;100.00;99454.65;107653;1254;60331;-59
2023/10/23 20:25:18;;;;;;;4.60;3.60;;;;;;;14.92;100.00;99459.20;104611;1257;71900;-59
2023/10/23 20:27:46;;;;;;;;;;;;;;;14.93;100.00;99459.70;104328;1254;70056;-58
2023/10/23 20:30:14;;;;;;;4.00;3.60;;;;;;;14.87;100.00;99450.66;104457;1251;73310;-59
2023/10/23 20:32:41;;;;;;;;;;;;;;;14.95;100.00;99449.67;104487;1259;62037;-59
2023/10/23 20:35:09;;;;;;;;;;;;;;;14.89;100.00;99449.33;104422;1269;60226;-61
2023/10/23 20:37:36;;;;;;;5.50;3.40;;;;;;;14.81;100.00;99449.14;104337;1273;72752;-59
2023/10/23 20:40:05;;;;;;;4.20;3.80;;;;;;;14.76;100.00;99452.40;104528;1251;69363;-59
2023/10/23 20:42:37;;;;;;;6.90;4.30;;;;;;;14.68;100.00;99452.91;104388;1254;72414;-59
2023/10/23 20:45:06;;;;;;;5.50;3.80;;;;;;;14.62;100.00;99451.75;104466;1267;60656;-59
2023/10/23 20:47:34;;;;;;;5.10;4.60;;;;;;;14.52;100.00;99452.31;104439;1255;59771;-58
2023/10/23 20:50:02;;;;;;;4.50;4.10;;;;;;;14.53;100.00;99451.01;104461;1269;73226;-59
2023/10/23 20:52:30;;;;;;;8.80;4.90;;;;;;;14.51;100.00;99451.81;104504;1263;69191;-59
2023/10/23 20:54:59;;;;;;;6.00;4.80;;;;;;;14.50;100.00;99456.35;104364;1267;72460;-62
2023/10/23 20:57:27;;;;;;;4.90;4.40;;;;;;;14.45;100.00;99453.13;104446;1256;61548;-59
2023/10/23 20:59:54;;;;;;;6.00;4.90;;;;;;;14.43;100.00;99450.42;104527;1257;59823;-59
2023/10/23 21:02:22;;;;;;;5.50;5.00;;;;;;;14.46;100.00;99451.46;104473;1256;72092;-58
2023/10/23 21:04:50;;;;;;;5.20;4.30;;;;;;;14.43;100.00;99450.57;104562;1257;69069;-60
2023/10/23 21:07:18;;;;;;;5.60;5.00;;;;;;;14.44;100.00;99455.65;104377;1257;73060;-58
2023/10/23 21:09:46;;;;;;;6.60;4.80;;;;;;;14.44;100.00;99455.45;104425;1256;61422;-58
2023/10/23 21:12:14;;;;;;;5.00;4.30;;;;;;;14.39;100.00;99448.02;104485;1256;61992;-58
2023/10/23 21:14:48;;;;;;;5.00;4.50;;;;;;;14.27;100.00;99453.17;104316;1274;74730;-58
